Bad Axe, Michigan
Current Conditions -  °F | °C
As of 3:38 PM on Tuesday 21 Oct 2014 (Local Time) from KBAX Reporting Station
Overcast Overcast  
Wind Chill: 35°   Ceiling: 2000
Heat Index: 43°   Visibility: 10mi
Dew Point: 38°   Wind: 15mph
Humidity: 83%   Direction: 20°NNE
Pressure: 30.12"   Gusts: 24mph
Location:  43.8°N, 83°W
Report Text: KBAX 211938Z AUTO 02013G21KT 10SM OVC020 06/03 A3012 RMK AO2 T00600033
Loading
Personal Weather Stations






























Interactive Weather Map
Tropical Storm Tracking
New forecast layout! Learn more

10-Day Weather Forecast

Advertisements
Track Severe Weather on mobile